sensor_id;sensor_type;location;lat;lon;timestamp;P1;durP1;ratioP1;P2;durP2;ratioP2
71236;SDS011;58984;51.960;5.582;2022-10-26T00:00:25;6.18;;;3.65;;
71236;SDS011;58984;51.960;5.582;2022-10-26T00:02:53;6.15;;;3.67;;
71236;SDS011;58984;51.960;5.582;2022-10-26T00:05:19;6.72;;;4.05;;
71236;SDS011;58984;51.960;5.582;2022-10-26T00:07:46;5.22;;;4.05;;
71236;SDS011;58984;51.960;5.582;2022-10-26T00:10:11;8.50;;;3.65;;
71236;SDS011;58984;51.960;5.582;2022-10-26T00:12:37;5.20;;;3.40;;
71236;SDS011;58984;51.960;5.582;2022-10-26T00:15:03;5.90;;;3.75;;
71236;SDS011;58984;51.960;5.582;2022-10-26T00:17:28;6.00;;;3.53;;
71236;SDS011;58984;51.960;5.582;2022-10-26T00:19:54;5.22;;;3.70;;
71236;SDS011;58984;51.960;5.582;2022-10-26T00:22:20;7.88;;;3.95;;
71236;SDS011;58984;51.960;5.582;2022-10-26T00:24:45;6.25;;;3.83;;
71236;SDS011;58984;51.960;5.582;2022-10-26T00:27:11;6.63;;;3.70;;
71236;SDS011;58984;51.960;5.582;2022-10-26T00:29:36;9.57;;;3.75;;
71236;SDS011;58984;51.960;5.582;2022-10-26T00:32:02;5.07;;;3.45;;
71236;SDS011;58984;51.960;5.582;2022-10-26T00:34:27;7.13;;;3.40;;
71236;SDS011;58984;51.960;5.582;2022-10-26T00:36:53;7.15;;;3.80;;
71236;SDS011;58984;51.960;5.582;2022-10-26T00:39:18;8.60;;;4.05;;
71236;SDS011;58984;51.960;5.582;2022-10-26T00:41:44;8.30;;;3.75;;
71236;SDS011;58984;51.960;5.582;2022-10-26T00:49:39;10.82;;;4.13;;
71236;SDS011;58984;51.960;5.582;2022-10-26T00:52:05;3.80;;;3.50;;
71236;SDS011;58984;51.960;5.582;2022-10-26T00:54:32;4.72;;;3.75;;
71236;SDS011;58984;51.960;5.582;2022-10-26T00:56:58;5.70;;;3.55;;
71236;SDS011;58984;51.960;5.582;2022-10-26T00:59:24;6.68;;;3.92;;
71236;SDS011;58984;51.960;5.582;2022-10-26T01:01:49;5.10;;;4.05;;
71236;SDS011;58984;51.960;5.582;2022-10-26T01:04:16;6.15;;;3.42;;
71236;SDS011;58984;51.960;5.582;2022-10-26T01:06:42;5.20;;;3.75;;
71236;SDS011;58984;51.960;5.582;2022-10-26T01:09:10;5.18;;;3.55;;
71236;SDS011;58984;51.960;5.582;2022-10-26T01:11:36;7.15;;;3.80;;
71236;SDS011;58984;51.960;5.582;2022-10-26T01:14:03;8.80;;;3.72;;
71236;SDS011;58984;51.960;5.582;2022-10-26T01:16:54;4.78;;;3.58;;
71236;SDS011;58984;51.960;5.582;2022-10-26T01:27:54;7.28;;;3.85;;
71236;SDS011;58984;51.960;5.582;2022-10-26T01:30:22;5.90;;;3.58;;
71236;SDS011;58984;51.960;5.582;2022-10-26T01:36:15;9.27;;;4.35;;
71236;SDS011;58984;51.960;5.582;2022-10-26T01:38:56;5.35;;;3.88;;
71236;SDS011;58984;51.960;5.582;2022-10-26T01:44:12;6.60;;;4.18;;
71236;SDS011;58984;51.960;5.582;2022-10-26T01:46:48;8.70;;;4.57;;
71236;SDS011;58984;51.960;5.582;2022-10-26T01:49:19;6.63;;;3.97;;
71236;SDS011;58984;51.960;5.582;2022-10-26T01:51:47;7.85;;;4.90;;
71236;SDS011;58984;51.960;5.582;2022-10-26T01:54:14;6.43;;;4.57;;
71236;SDS011;58984;51.960;5.582;2022-10-26T01:56:41;10.48;;;4.50;;
71236;SDS011;58984;51.960;5.582;2022-10-26T02:09:44;7.72;;;4.47;;
71236;SDS011;58984;51.960;5.582;2022-10-26T02:12:59;6.38;;;3.88;;
71236;SDS011;58984;51.960;5.582;2022-10-26T02:15:28;4.93;;;3.92;;
71236;SDS011;58984;51.960;5.582;2022-10-26T02:18:10;7.07;;;4.18;;
71236;SDS011;58984;51.960;5.582;2022-10-26T02:21:06;5.15;;;3.50;;
71236;SDS011;58984;51.960;5.582;2022-10-26T02:23:41;9.02;;;4.25;;
71236;SDS011;58984;51.960;5.582;2022-10-26T02:26:10;6.47;;;4.10;;
71236;SDS011;58984;51.960;5.582;2022-10-26T02:28:39;7.70;;;4.60;;
71236;SDS011;58984;51.960;5.582;2022-10-26T02:31:08;7.07;;;4.10;;
71236;SDS011;58984;51.960;5.582;2022-10-26T02:33:37;7.85;;;4.45;;
71236;SDS011;58984;51.960;5.582;2022-10-26T02:36:07;6.90;;;4.57;;
71236;SDS011;58984;51.960;5.582;2022-10-26T02:38:36;7.95;;;4.40;;
71236;SDS011;58984;51.960;5.582;2022-10-26T02:41:03;6.65;;;4.20;;
71236;SDS011;58984;51.960;5.582;2022-10-26T02:43:29;8.43;;;4.43;;
71236;SDS011;58984;51.960;5.582;2022-10-26T02:46:03;5.82;;;4.63;;
71236;SDS011;58984;51.960;5.582;2022-10-26T02:48:32;7.38;;;4.60;;
71236;SDS011;58984;51.960;5.582;2022-10-26T02:56:30;4.90;;;3.80;;
71236;SDS011;58984;51.960;5.582;2022-10-26T02:59:01;5.88;;;4.18;;
71236;SDS011;58984;51.960;5.582;2022-10-26T03:01:30;7.95;;;4.35;;
71236;SDS011;58984;51.960;5.582;2022-10-26T03:03:57;7.30;;;4.53;;
71236;SDS011;58984;51.960;5.582;2022-10-26T03:06:23;9.88;;;4.25;;
71236;SDS011;58984;51.960;5.582;2022-10-26T03:08:49;5.80;;;3.80;;
71236;SDS011;58984;51.960;5.582;2022-10-26T03:11:15;10.98;;;4.18;;
71236;SDS011;58984;51.960;5.582;2022-10-26T03:13:42;8.85;;;4.43;;
71236;SDS011;58984;51.960;5.582;2022-10-26T03:16:08;8.82;;;4.32;;
71236;SDS011;58984;51.960;5.582;2022-10-26T03:18:34;7.25;;;4.57;;
71236;SDS011;58984;51.960;5.582;2022-10-26T03:20:59;8.30;;;4.30;;
71236;SDS011;58984;51.960;5.582;2022-10-26T03:23:25;7.05;;;4.25;;
71236;SDS011;58984;51.960;5.582;2022-10-26T03:25:50;6.20;;;4.43;;
71236;SDS011;58984;51.960;5.582;2022-10-26T03:28:20;6.35;;;4.43;;
71236;SDS011;58984;51.960;5.582;2022-10-26T03:30:45;8.52;;;4.53;;
71236;SDS011;58984;51.960;5.582;2022-10-26T03:33:11;5.93;;;4.63;;
71236;SDS011;58984;51.960;5.582;2022-10-26T03:35:36;6.68;;;4.20;;
71236;SDS011;58984;51.960;5.582;2022-10-26T03:38:02;7.13;;;4.47;;
71236;SDS011;58984;51.960;5.582;2022-10-26T03:40:27;7.43;;;4.53;;
71236;SDS011;58984;51.960;5.582;2022-10-26T03:42:53;5.03;;;4.05;;
71236;SDS011;58984;51.960;5.582;2022-10-26T03:45:18;6.05;;;4.43;;
71236;SDS011;58984;51.960;5.582;2022-10-26T03:47:47;7.45;;;4.55;;
71236;SDS011;58984;51.960;5.582;2022-10-26T03:50:15;7.53;;;3.97;;
71236;SDS011;58984;51.960;5.582;2022-10-26T03:52:41;7.43;;;4.70;;
71236;SDS011;58984;51.960;5.582;2022-10-26T03:55:07;8.02;;;4.30;;
71236;SDS011;58984;51.960;5.582;2022-10-26T03:57:33;5.70;;;3.83;;
71236;SDS011;58984;51.960;5.582;2022-10-26T04:00:03;7.15;;;3.83;;
71236;SDS011;58984;51.960;5.582;2022-10-26T04:02:29;8.48;;;4.75;;
71236;SDS011;58984;51.960;5.582;2022-10-26T04:04:55;6.28;;;4.38;;
71236;SDS011;58984;51.960;5.582;2022-10-26T04:07:20;5.95;;;4.03;;
71236;SDS011;58984;51.960;5.582;2022-10-26T04:09:46;8.48;;;4.53;;
71236;SDS011;58984;51.960;5.582;2022-10-26T04:12:11;8.18;;;3.83;;
71236;SDS011;58984;51.960;5.582;2022-10-26T04:14:37;7.40;;;4.10;;
71236;SDS011;58984;51.960;5.582;2022-10-26T04:17:02;7.70;;;4.10;;
71236;SDS011;58984;51.960;5.582;2022-10-26T04:19:28;8.63;;;4.28;;
71236;SDS011;58984;51.960;5.582;2022-10-26T04:21:53;6.63;;;4.22;;
71236;SDS011;58984;51.960;5.582;2022-10-26T04:24:19;8.45;;;4.28;;
71236;SDS011;58984;51.960;5.582;2022-10-26T04:26:44;4.78;;;3.72;;
71236;SDS011;58984;51.960;5.582;2022-10-26T04:29:10;7.20;;;4.40;;
71236;SDS011;58984;51.960;5.582;2022-10-26T04:31:37;6.53;;;4.68;;
71236;SDS011;58984;51.960;5.582;2022-10-26T04:34:03;7.80;;;4.10;;
71236;SDS011;58984;51.960;5.582;2022-10-26T04:36:29;7.50;;;4.35;;
71236;SDS011;58984;51.960;5.582;2022-10-26T04:38:54;6.55;;;4.13;;
71236;SDS011;58984;51.960;5.582;2022-10-26T04:41:20;7.93;;;4.50;;
71236;SDS011;58984;51.960;5.582;2022-10-26T04:43:45;10.45;;;4.13;;
71236;SDS011;58984;51.960;5.582;2022-10-26T04:46:11;6.07;;;3.95;;
71236;SDS011;58984;51.960;5.582;2022-10-26T04:48:38;7.65;;;4.30;;
71236;SDS011;58984;51.960;5.582;2022-10-26T04:51:04;6.53;;;4.20;;
71236;SDS011;58984;51.960;5.582;2022-10-26T04:53:29;6.00;;;4.38;;
71236;SDS011;58984;51.960;5.582;2022-10-26T04:55:58;6.75;;;4.72;;
71236;SDS011;58984;51.960;5.582;2022-10-26T04:58:25;7.90;;;4.20;;
71236;SDS011;58984;51.960;5.582;2022-10-26T05:00:51;8.32;;;4.25;;
71236;SDS011;58984;51.960;5.582;2022-10-26T05:03:17;6.57;;;4.13;;
71236;SDS011;58984;51.960;5.582;2022-10-26T05:05:42;6.00;;;3.85;;
71236;SDS011;58984;51.960;5.582;2022-10-26T05:08:08;8.13;;;4.55;;
71236;SDS011;58984;51.960;5.582;2022-10-26T05:10:34;5.90;;;4.30;;
71236;SDS011;58984;51.960;5.582;2022-10-26T05:13:00;8.65;;;4.05;;
71236;SDS011;58984;51.960;5.582;2022-10-26T05:15:26;9.63;;;3.90;;
71236;SDS011;58984;51.960;5.582;2022-10-26T05:17:56;6.07;;;3.92;;
71236;SDS011;58984;51.960;5.582;2022-10-26T05:20:23;7.72;;;4.22;;
71236;SDS011;58984;51.960;5.582;2022-10-26T05:22:55;5.87;;;4.30;;
71236;SDS011;58984;51.960;5.582;2022-10-26T05:25:21;9.13;;;4.15;;
71236;SDS011;58984;51.960;5.582;2022-10-26T05:27:47;7.75;;;4.22;;
71236;SDS011;58984;51.960;5.582;2022-10-26T05:30:13;6.05;;;4.30;;
71236;SDS011;58984;51.960;5.582;2022-10-26T05:32:38;4.35;;;3.63;;
71236;SDS011;58984;51.960;5.582;2022-10-26T05:35:04;7.78;;;3.63;;
71236;SDS011;58984;51.960;5.582;2022-10-26T05:37:29;7.38;;;4.20;;
71236;SDS011;58984;51.960;5.582;2022-10-26T05:39:55;5.63;;;3.80;;
71236;SDS011;58984;51.960;5.582;2022-10-26T05:42:20;5.63;;;3.88;;
71236;SDS011;58984;51.960;5.582;2022-10-26T05:44:46;4.80;;;3.42;;
71236;SDS011;58984;51.960;5.582;2022-10-26T05:47:12;6.00;;;3.83;;
71236;SDS011;58984;51.960;5.582;2022-10-26T05:49:37;6.72;;;3.75;;
71236;SDS011;58984;51.960;5.582;2022-10-26T05:52:03;6.88;;;4.07;;
71236;SDS011;58984;51.960;5.582;2022-10-26T05:54:29;6.97;;;3.53;;
71236;SDS011;58984;51.960;5.582;2022-10-26T05:56:55;7.22;;;3.72;;
71236;SDS011;58984;51.960;5.582;2022-10-26T05:59:21;5.85;;;4.05;;
71236;SDS011;58984;51.960;5.582;2022-10-26T06:04:53;5.60;;;3.53;;
71236;SDS011;58984;51.960;5.582;2022-10-26T06:07:26;7.00;;;3.47;;
71236;SDS011;58984;51.960;5.582;2022-10-26T06:09:52;6.05;;;3.47;;
71236;SDS011;58984;51.960;5.582;2022-10-26T06:12:18;8.13;;;3.95;;
71236;SDS011;58984;51.960;5.582;2022-10-26T06:14:43;5.80;;;3.20;;
71236;SDS011;58984;51.960;5.582;2022-10-26T06:17:34;7.65;;;3.63;;
71236;SDS011;58984;51.960;5.582;2022-10-26T06:20:21;5.63;;;3.58;;
71236;SDS011;58984;51.960;5.582;2022-10-26T06:28:22;5.68;;;3.88;;
71236;SDS011;58984;51.960;5.582;2022-10-26T06:30:59;7.68;;;3.85;;
71236;SDS011;58984;51.960;5.582;2022-10-26T06:33:25;6.22;;;3.88;;
71236;SDS011;58984;51.960;5.582;2022-10-26T06:38:38;6.85;;;3.65;;
71236;SDS011;58984;51.960;5.582;2022-10-26T06:41:08;4.75;;;3.72;;
71236;SDS011;58984;51.960;5.582;2022-10-26T06:43:36;5.55;;;3.38;;
71236;SDS011;58984;51.960;5.582;2022-10-26T06:49:13;8.55;;;3.55;;
71236;SDS011;58984;51.960;5.582;2022-10-26T06:51:56;4.22;;;3.53;;
71236;SDS011;58984;51.960;5.582;2022-10-26T06:57:14;9.00;;;3.83;;
71236;SDS011;58984;51.960;5.582;2022-10-26T06:59:45;8.65;;;3.70;;
71236;SDS011;58984;51.960;5.582;2022-10-26T07:02:12;5.43;;;3.38;;
71236;SDS011;58984;51.960;5.582;2022-10-26T07:04:38;6.78;;;3.50;;
71236;SDS011;58984;51.960;5.582;2022-10-26T07:07:05;5.20;;;3.45;;
71236;SDS011;58984;51.960;5.582;2022-10-26T07:09:32;7.80;;;3.80;;
71236;SDS011;58984;51.960;5.582;2022-10-26T07:11:58;5.05;;;3.17;;
71236;SDS011;58984;51.960;5.582;2022-10-26T07:14:23;4.82;;;3.20;;
71236;SDS011;58984;51.960;5.582;2022-10-26T07:16:49;4.25;;;2.70;;
71236;SDS011;58984;51.960;5.582;2022-10-26T07:19:14;5.75;;;3.25;;
71236;SDS011;58984;51.960;5.582;2022-10-26T07:21:40;6.40;;;3.85;;
71236;SDS011;58984;51.960;5.582;2022-10-26T07:24:05;5.32;;;3.15;;
71236;SDS011;58984;51.960;5.582;2022-10-26T07:26:31;4.95;;;3.38;;
71236;SDS011;58984;51.960;5.582;2022-10-26T07:28:57;7.00;;;3.33;;
71236;SDS011;58984;51.960;5.582;2022-10-26T07:31:22;6.32;;;3.10;;
71236;SDS011;58984;51.960;5.582;2022-10-26T07:33:48;6.47;;;3.78;;
71236;SDS011;58984;51.960;5.582;2022-10-26T07:36:13;5.35;;;3.90;;
71236;SDS011;58984;51.960;5.582;2022-10-26T07:38:39;9.68;;;3.47;;
71236;SDS011;58984;51.960;5.582;2022-10-26T07:41:05;7.72;;;3.00;;
71236;SDS011;58984;51.960;5.582;2022-10-26T07:43:30;4.38;;;3.17;;
71236;SDS011;58984;51.960;5.582;2022-10-26T07:45:56;4.35;;;2.95;;
71236;SDS011;58984;51.960;5.582;2022-10-26T07:48:21;8.05;;;3.38;;
71236;SDS011;58984;51.960;5.582;2022-10-26T07:50:47;7.78;;;3.55;;
71236;SDS011;58984;51.960;5.582;2022-10-26T07:53:13;4.40;;;3.58;;
71236;SDS011;58984;51.960;5.582;2022-10-26T07:55:38;5.75;;;3.35;;
71236;SDS011;58984;51.960;5.582;2022-10-26T07:58:04;6.45;;;3.50;;
71236;SDS011;58984;51.960;5.582;2022-10-26T08:00:29;5.97;;;3.97;;
71236;SDS011;58984;51.960;5.582;2022-10-26T08:02:55;5.72;;;3.30;;
71236;SDS011;58984;51.960;5.582;2022-10-26T08:05:21;5.50;;;3.60;;
71236;SDS011;58984;51.960;5.582;2022-10-26T08:07:46;6.82;;;3.35;;
71236;SDS011;58984;51.960;5.582;2022-10-26T08:10:12;4.70;;;3.10;;
71236;SDS011;58984;51.960;5.582;2022-10-26T08:12:39;6.97;;;3.58;;
71236;SDS011;58984;51.960;5.582;2022-10-26T08:15:05;5.18;;;3.65;;
71236;SDS011;58984;51.960;5.582;2022-10-26T08:17:32;6.47;;;3.20;;
71236;SDS011;58984;51.960;5.582;2022-10-26T08:19:57;8.85;;;3.53;;
71236;SDS011;58984;51.960;5.582;2022-10-26T08:22:23;8.40;;;3.42;;
71236;SDS011;58984;51.960;5.582;2022-10-26T08:24:49;4.60;;;3.15;;
71236;SDS011;58984;51.960;5.582;2022-10-26T08:27:14;4.03;;;3.20;;
71236;SDS011;58984;51.960;5.582;2022-10-26T08:29:40;6.45;;;3.58;;
71236;SDS011;58984;51.960;5.582;2022-10-26T08:32:06;5.63;;;3.40;;
71236;SDS011;58984;51.960;5.582;2022-10-26T08:34:32;5.75;;;3.13;;
71236;SDS011;58984;51.960;5.582;2022-10-26T08:36:58;5.50;;;3.30;;
71236;SDS011;58984;51.960;5.582;2022-10-26T08:39:23;5.13;;;3.35;;
71236;SDS011;58984;51.960;5.582;2022-10-26T08:41:53;4.65;;;3.25;;
71236;SDS011;58984;51.960;5.582;2022-10-26T08:44:46;5.10;;;2.80;;
71236;SDS011;58984;51.960;5.582;2022-10-26T08:47:16;6.63;;;3.65;;
71236;SDS011;58984;51.960;5.582;2022-10-26T08:52:21;6.63;;;3.85;;
71236;SDS011;58984;51.960;5.582;2022-10-26T08:54:55;9.32;;;4.05;;
71236;SDS011;58984;51.960;5.582;2022-10-26T08:57:36;7.50;;;3.80;;
71236;SDS011;58984;51.960;5.582;2022-10-26T09:00:04;6.50;;;3.72;;
71236;SDS011;58984;51.960;5.582;2022-10-26T09:02:39;6.95;;;3.80;;
71236;SDS011;58984;51.960;5.582;2022-10-26T09:05:11;7.97;;;3.80;;
71236;SDS011;58984;51.960;5.582;2022-10-26T09:07:58;5.65;;;3.80;;
71236;SDS011;58984;51.960;5.582;2022-10-26T09:10:52;6.32;;;4.13;;
71236;SDS011;58984;51.960;5.582;2022-10-26T09:16:07;5.38;;;3.60;;
71236;SDS011;58984;51.960;5.582;2022-10-26T09:21:36;6.57;;;4.00;;
71236;SDS011;58984;51.960;5.582;2022-10-26T09:24:24;5.25;;;3.47;;
71236;SDS011;58984;51.960;5.582;2022-10-26T09:29:45;9.18;;;4.03;;
71236;SDS011;58984;51.960;5.582;2022-10-26T09:32:20;6.50;;;3.08;;
71236;SDS011;58984;51.960;5.582;2022-10-26T09:34:57;7.03;;;3.67;;
71236;SDS011;58984;51.960;5.582;2022-10-26T09:37:30;6.57;;;3.55;;
71236;SDS011;58984;51.960;5.582;2022-10-26T09:42:45;7.57;;;4.18;;
71236;SDS011;58984;51.960;5.582;2022-10-26T09:45:41;5.55;;;4.05;;
71236;SDS011;58984;51.960;5.582;2022-10-26T09:48:12;4.68;;;3.17;;
71236;SDS011;58984;51.960;5.582;2022-10-26T09:50:43;5.22;;;3.72;;
71236;SDS011;58984;51.960;5.582;2022-10-26T09:53:12;6.10;;;3.17;;
71236;SDS011;58984;51.960;5.582;2022-10-26T09:55:39;6.63;;;3.80;;
71236;SDS011;58984;51.960;5.582;2022-10-26T09:58:14;7.90;;;4.15;;
71236;SDS011;58984;51.960;5.582;2022-10-26T10:00:45;6.50;;;3.97;;
71236;SDS011;58984;51.960;5.582;2022-10-26T10:03:28;6.45;;;4.35;;
71236;SDS011;58984;51.960;5.582;2022-10-26T10:06:13;6.07;;;3.53;;
71236;SDS011;58984;51.960;5.582;2022-10-26T10:08:43;5.00;;;3.50;;
71236;SDS011;58984;51.960;5.582;2022-10-26T10:11:40;6.10;;;3.67;;
71236;SDS011;58984;51.960;5.582;2022-10-26T10:14:19;5.25;;;2.97;;
71236;SDS011;58984;51.960;5.582;2022-10-26T10:16:57;5.90;;;3.47;;
71236;SDS011;58984;51.960;5.582;2022-10-26T10:19:26;6.28;;;3.05;;
71236;SDS011;58984;51.960;5.582;2022-10-26T10:21:54;7.60;;;3.67;;
71236;SDS011;58984;51.960;5.582;2022-10-26T10:24:29;7.70;;;3.13;;
71236;SDS011;58984;51.960;5.582;2022-10-26T10:26:57;4.63;;;3.10;;
71236;SDS011;58984;51.960;5.582;2022-10-26T10:29:27;5.18;;;3.08;;
71236;SDS011;58984;51.960;5.582;2022-10-26T10:31:55;4.57;;;3.20;;
71236;SDS011;58984;51.960;5.582;2022-10-26T10:34:23;3.80;;;2.53;;
71236;SDS011;58984;51.960;5.582;2022-10-26T10:36:48;6.18;;;3.20;;
71236;SDS011;58984;51.960;5.582;2022-10-26T10:42:01;7.72;;;3.53;;
71236;SDS011;58984;51.960;5.582;2022-10-26T10:44:28;5.10;;;3.33;;
71236;SDS011;58984;51.960;5.582;2022-10-26T10:47:00;4.05;;;2.90;;
71236;SDS011;58984;51.960;5.582;2022-10-26T10:49:27;5.35;;;3.72;;
71236;SDS011;58984;51.960;5.582;2022-10-26T10:51:54;4.65;;;2.88;;
71236;SDS011;58984;51.960;5.582;2022-10-26T10:54:25;4.45;;;2.97;;
71236;SDS011;58984;51.960;5.582;2022-10-26T10:56:58;5.57;;;2.90;;
71236;SDS011;58984;51.960;5.582;2022-10-26T11:08:02;4.18;;;2.45;;
71236;SDS011;58984;51.960;5.582;2022-10-26T11:10:38;6.40;;;3.10;;
71236;SDS011;58984;51.960;5.582;2022-10-26T11:13:13;3.90;;;2.70;;
71236;SDS011;58984;51.960;5.582;2022-10-26T11:15:44;4.03;;;2.92;;
71236;SDS011;58984;51.960;5.582;2022-10-26T11:18:16;3.72;;;2.63;;
71236;SDS011;58984;51.960;5.582;2022-10-26T11:20:55;5.53;;;3.22;;
71236;SDS011;58984;51.960;5.582;2022-10-26T11:23:37;5.03;;;3.00;;
71236;SDS011;58984;51.960;5.582;2022-10-26T11:26:13;4.15;;;3.00;;
71236;SDS011;58984;51.960;5.582;2022-10-26T11:29:18;3.45;;;2.40;;
71236;SDS011;58984;51.960;5.582;2022-10-26T11:32:02;4.80;;;2.87;;
71236;SDS011;58984;51.960;5.582;2022-10-26T11:34:34;5.22;;;2.92;;
71236;SDS011;58984;51.960;5.582;2022-10-26T11:37:08;5.05;;;2.85;;
71236;SDS011;58984;51.960;5.582;2022-10-26T11:39:43;4.45;;;2.90;;
71236;SDS011;58984;51.960;5.582;2022-10-26T11:44:49;5.95;;;3.00;;
71236;SDS011;58984;51.960;5.582;2022-10-26T11:47:43;4.75;;;2.90;;
71236;SDS011;58984;51.960;5.582;2022-10-26T11:52:50;6.18;;;3.25;;
71236;SDS011;58984;51.960;5.582;2022-10-26T11:55:22;5.78;;;2.83;;
71236;SDS011;58984;51.960;5.582;2022-10-26T11:57:48;4.03;;;3.03;;
71236;SDS011;58984;51.960;5.582;2022-10-26T12:00:17;4.25;;;3.25;;
71236;SDS011;58984;51.960;5.582;2022-10-26T12:02:51;6.35;;;3.45;;
71236;SDS011;58984;51.960;5.582;2022-10-26T12:05:42;4.82;;;3.22;;
71236;SDS011;58984;51.960;5.582;2022-10-26T12:08:17;5.18;;;3.83;;
71236;SDS011;58984;51.960;5.582;2022-10-26T12:10:50;4.78;;;3.85;;
71236;SDS011;58984;51.960;5.582;2022-10-26T12:13:34;5.03;;;3.60;;
71236;SDS011;58984;51.960;5.582;2022-10-26T12:16:57;6.80;;;3.90;;
71236;SDS011;58984;51.960;5.582;2022-10-26T12:19:32;4.72;;;4.32;;
71236;SDS011;58984;51.960;5.582;2022-10-26T12:22:18;5.47;;;4.72;;
71236;SDS011;58984;51.960;5.582;2022-10-26T12:24:46;4.45;;;4.05;;
71236;SDS011;58984;51.960;5.582;2022-10-26T12:27:48;6.75;;;4.55;;
71236;SDS011;58984;51.960;5.582;2022-10-26T12:40:46;4.30;;;3.80;;
71236;SDS011;58984;51.960;5.582;2022-10-26T12:45:37;4.13;;;3.72;;
71236;SDS011;58984;51.960;5.582;2022-10-26T12:48:20;6.05;;;4.13;;
71236;SDS011;58984;51.960;5.582;2022-10-26T12:56:41;4.40;;;3.95;;
71236;SDS011;58984;51.960;5.582;2022-10-26T13:01:57;6.87;;;3.53;;
71236;SDS011;58984;51.960;5.582;2022-10-26T13:04:46;3.95;;;3.20;;
71236;SDS011;58984;51.960;5.582;2022-10-26T13:12:26;4.57;;;4.10;;
71236;SDS011;58984;51.960;5.582;2022-10-26T13:15:01;5.55;;;4.00;;
71236;SDS011;58984;51.960;5.582;2022-10-26T13:17:30;5.57;;;4.70;;
71236;SDS011;58984;51.960;5.582;2022-10-26T13:20:00;5.25;;;3.90;;
71236;SDS011;58984;51.960;5.582;2022-10-26T13:22:28;6.78;;;5.00;;
71236;SDS011;58984;51.960;5.582;2022-10-26T13:25:02;10.57;;;6.50;;
71236;SDS011;58984;51.960;5.582;2022-10-26T13:32:33;5.43;;;4.95;;
71236;SDS011;58984;51.960;5.582;2022-10-26T13:35:04;8.55;;;5.10;;
71236;SDS011;58984;51.960;5.582;2022-10-26T13:37:34;6.78;;;4.82;;
71236;SDS011;58984;51.960;5.582;2022-10-26T13:40:02;6.43;;;4.32;;
71236;SDS011;58984;51.960;5.582;2022-10-26T13:42:37;5.57;;;4.47;;
71236;SDS011;58984;51.960;5.582;2022-10-26T13:45:11;5.90;;;4.40;;
71236;SDS011;58984;51.960;5.582;2022-10-26T13:47:59;5.65;;;4.30;;
71236;SDS011;58984;51.960;5.582;2022-10-26T13:50:35;4.78;;;4.30;;
71236;SDS011;58984;51.960;5.582;2022-10-26T13:53:11;4.95;;;4.43;;
71236;SDS011;58984;51.960;5.582;2022-10-26T13:56:00;5.18;;;4.32;;
71236;SDS011;58984;51.960;5.582;2022-10-26T14:01:02;5.22;;;4.40;;
71236;SDS011;58984;51.960;5.582;2022-10-26T14:03:34;7.35;;;4.82;;
71236;SDS011;58984;51.960;5.582;2022-10-26T14:06:03;6.35;;;4.47;;
71236;SDS011;58984;51.960;5.582;2022-10-26T14:08:30;4.60;;;4.15;;
71236;SDS011;58984;51.960;5.582;2022-10-26T14:10:56;5.07;;;3.83;;
71236;SDS011;58984;51.960;5.582;2022-10-26T14:13:24;6.15;;;3.83;;
71236;SDS011;58984;51.960;5.582;2022-10-26T14:15:51;5.55;;;4.28;;
71236;SDS011;58984;51.960;5.582;2022-10-26T14:18:24;4.68;;;4.20;;
71236;SDS011;58984;51.960;5.582;2022-10-26T14:23:34;7.88;;;3.85;;
71236;SDS011;58984;51.960;5.582;2022-10-26T14:26:01;4.57;;;4.00;;
71236;SDS011;58984;51.960;5.582;2022-10-26T14:28:29;4.53;;;3.33;;
71236;SDS011;58984;51.960;5.582;2022-10-26T14:33:45;4.32;;;3.55;;
71236;SDS011;58984;51.960;5.582;2022-10-26T14:36:11;5.47;;;3.70;;
71236;SDS011;58984;51.960;5.582;2022-10-26T14:38:41;4.28;;;3.30;;
71236;SDS011;58984;51.960;5.582;2022-10-26T14:41:10;4.18;;;3.42;;
71236;SDS011;58984;51.960;5.582;2022-10-26T14:43:38;3.92;;;2.97;;
71236;SDS011;58984;51.960;5.582;2022-10-26T14:46:04;4.93;;;3.10;;
71236;SDS011;58984;51.960;5.582;2022-10-26T14:48:30;3.22;;;2.92;;
71236;SDS011;58984;51.960;5.582;2022-10-26T14:50:58;5.05;;;3.10;;
71236;SDS011;58984;51.960;5.582;2022-10-26T14:53:28;4.10;;;3.10;;
71236;SDS011;58984;51.960;5.582;2022-10-26T14:55:59;4.30;;;2.95;;
71236;SDS011;58984;51.960;5.582;2022-10-26T14:58:31;4.72;;;2.95;;
71236;SDS011;58984;51.960;5.582;2022-10-26T15:01:13;6.80;;;2.53;;
71236;SDS011;58984;51.960;5.582;2022-10-26T15:03:45;3.92;;;2.70;;
71236;SDS011;58984;51.960;5.582;2022-10-26T15:08:56;4.82;;;2.83;;
71236;SDS011;58984;51.960;5.582;2022-10-26T15:11:28;3.38;;;2.60;;
71236;SDS011;58984;51.960;5.582;2022-10-26T15:13:55;4.43;;;2.60;;
71236;SDS011;58984;51.960;5.582;2022-10-26T15:16:25;3.85;;;2.47;;
71236;SDS011;58984;51.960;5.582;2022-10-26T15:19:06;3.53;;;2.40;;
71236;SDS011;58984;51.960;5.582;2022-10-26T15:21:36;4.38;;;2.78;;
71236;SDS011;58984;51.960;5.582;2022-10-26T15:24:13;3.55;;;2.17;;
71236;SDS011;58984;51.960;5.582;2022-10-26T15:26:44;2.65;;;2.10;;
71236;SDS011;58984;51.960;5.582;2022-10-26T15:34:29;3.28;;;2.05;;
71236;SDS011;58984;51.960;5.582;2022-10-26T15:36:55;3.75;;;2.08;;
71236;SDS011;58984;51.960;5.582;2022-10-26T15:39:20;3.38;;;2.08;;
71236;SDS011;58984;51.960;5.582;2022-10-26T15:41:46;3.33;;;2.25;;
71236;SDS011;58984;51.960;5.582;2022-10-26T15:44:14;4.00;;;2.40;;
71236;SDS011;58984;51.960;5.582;2022-10-26T15:46:43;3.55;;;2.00;;
71236;SDS011;58984;51.960;5.582;2022-10-26T15:49:17;5.57;;;2.55;;
71236;SDS011;58984;51.960;5.582;2022-10-26T15:51:44;7.25;;;2.55;;
71236;SDS011;58984;51.960;5.582;2022-10-26T15:54:11;4.28;;;2.13;;
71236;SDS011;58984;51.960;5.582;2022-10-26T15:56:37;5.40;;;2.03;;
71236;SDS011;58984;51.960;5.582;2022-10-26T15:59:04;3.63;;;2.20;;
71236;SDS011;58984;51.960;5.582;2022-10-26T16:01:40;5.38;;;2.67;;
71236;SDS011;58984;51.960;5.582;2022-10-26T16:04:07;6.93;;;2.38;;
71236;SDS011;58984;51.960;5.582;2022-10-26T16:06:41;5.40;;;2.47;;
71236;SDS011;58984;51.960;5.582;2022-10-26T16:09:16;5.45;;;2.70;;
71236;SDS011;58984;51.960;5.582;2022-10-26T16:11:43;4.30;;;2.15;;
71236;SDS011;58984;51.960;5.582;2022-10-26T16:14:09;4.40;;;2.53;;
71236;SDS011;58984;51.960;5.582;2022-10-26T16:16:36;4.50;;;2.30;;
71236;SDS011;58984;51.960;5.582;2022-10-26T16:19:02;9.25;;;2.60;;
71236;SDS011;58984;51.960;5.582;2022-10-26T16:21:28;5.82;;;2.25;;
71236;SDS011;58984;51.960;5.582;2022-10-26T16:23:54;4.70;;;2.40;;
71236;SDS011;58984;51.960;5.582;2022-10-26T16:26:21;3.80;;;2.00;;
71236;SDS011;58984;51.960;5.582;2022-10-26T16:28:47;4.15;;;3.75;;
71236;SDS011;58984;51.960;5.582;2022-10-26T16:31:14;7.85;;;2.80;;
71236;SDS011;58984;51.960;5.582;2022-10-26T16:33:41;4.80;;;3.03;;
71236;SDS011;58984;51.960;5.582;2022-10-26T16:36:08;5.63;;;3.20;;
71236;SDS011;58984;51.960;5.582;2022-10-26T16:38:35;4.05;;;3.00;;
71236;SDS011;58984;51.960;5.582;2022-10-26T16:41:08;4.28;;;2.97;;
71236;SDS011;58984;51.960;5.582;2022-10-26T16:43:36;7.05;;;2.97;;
71236;SDS011;58984;51.960;5.582;2022-10-26T16:48:33;7.10;;;2.92;;
71236;SDS011;58984;51.960;5.582;2022-10-26T16:51:06;4.15;;;3.22;;
71236;SDS011;58984;51.960;5.582;2022-10-26T16:53:33;5.10;;;3.00;;
71236;SDS011;58984;51.960;5.582;2022-10-26T16:56:02;5.20;;;3.28;;
71236;SDS011;58984;51.960;5.582;2022-10-26T16:58:30;6.93;;;3.27;;
71236;SDS011;58984;51.960;5.582;2022-10-26T17:00:55;5.10;;;2.80;;
71236;SDS011;58984;51.960;5.582;2022-10-26T17:03:21;8.27;;;3.17;;
71236;SDS011;58984;51.960;5.582;2022-10-26T17:05:47;5.10;;;2.90;;
71236;SDS011;58984;51.960;5.582;2022-10-26T17:08:18;3.17;;;2.55;;
71236;SDS011;58984;51.960;5.582;2022-10-26T17:10:43;4.70;;;2.80;;
71236;SDS011;58984;51.960;5.582;2022-10-26T17:13:09;5.60;;;3.00;;
71236;SDS011;58984;51.960;5.582;2022-10-26T17:15:34;5.03;;;2.90;;
71236;SDS011;58984;51.960;5.582;2022-10-26T17:18:00;4.68;;;3.20;;